Time;durP1;ratioP1;P1;durP2;ratioP2;P2;SDS_P1;SDS_P2;PMS_P1;PMS_P2;Temp;Humidity;BMP_temperature;BMP_pressure;BME280_temperature;BME280_humidity;BME280_pressure;Samples;Min_cycle;Max_cycle;Signal;HPM_P1;HPM_P2
2022/12/11 00:00:20;;;;;;;22.75;3.42;;;;;;;19.35;100.00;100903.66;2075982;28;20057;-72
2022/12/11 00:01:43;;;;;;;12.10;2.63;;;;;;;19.35;100.00;100897.41;2076994;28;20068;-73
2022/12/11 00:03:06;;;;;;;14.27;3.20;;;;;;;19.34;100.00;100888.50;2076012;28;20053;-73
2022/12/11 00:04:28;;;;;;;16.65;3.72;;;;;;;19.33;100.00;100888.50;2077408;28;20050;-73
2022/12/11 00:05:51;;;;;;;11.80;2.13;;;;;;;19.33;100.00;100899.22;2068105;28;20065;-72
2022/12/11 00:07:13;;;;;;;10.57;2.63;;;;;;;19.33;100.00;100901.91;2073713;28;20072;-72
2022/12/11 00:08:35;;;;;;;11.82;2.78;;;;;;;19.33;100.00;100917.97;2075322;28;20053;-73
2022/12/11 00:09:59;;;;;;;15.90;3.35;;;;;;;19.33;100.00;100900.09;2069358;28;20371;-73
2022/12/11 00:11:23;;;;;;;18.02;3.38;;;;;;;19.33;100.00;100926.00;2069867;28;20070;-72
2022/12/11 00:12:44;;;;;;;15.18;4.18;;;;;;;19.32;100.00;100925.09;2067347;28;20564;-73
2022/12/11 00:14:06;;;;;;;14.82;3.30;;;;;;;19.32;100.00;100940.28;2076946;28;20049;-72
2022/12/11 00:15:28;;;;;;;15.02;2.80;;;;;;;19.31;100.00;100943.88;2068055;28;20038;-72
2022/12/11 00:16:50;;;;;;;18.42;4.13;;;;;;;19.32;100.00;100959.91;2067001;28;20054;-72
2022/12/11 00:18:13;;;;;;;14.60;2.78;;;;;;;19.35;100.00;100961.66;2077465;28;20076;-72
2022/12/11 00:19:36;;;;;;;17.88;3.55;;;;;;;19.37;100.00;100974.09;2069490;28;20164;-73
2022/12/11 00:21:00;;;;;;;17.83;2.70;;;;;;;19.40;100.00;101002.63;2075128;28;20513;-72
2022/12/11 00:22:22;;;;;;;18.92;3.40;;;;;;;19.40;100.00;100973.16;2078025;28;20057;-72
2022/12/11 00:23:43;;;;;;;17.73;3.60;;;;;;;19.42;100.00;100980.28;2077498;28;20041;-72
2022/12/11 00:25:08;;;;;;;27.48;3.80;;;;;;;19.45;100.00;100974.84;2080360;28;20061;-72
2022/12/11 00:26:29;;;;;;;13.77;2.75;;;;;;;19.46;100.00;100975.78;2079192;28;20068;-72
2022/12/11 00:27:52;;;;;;;21.40;2.95;;;;;;;19.49;100.00;100997.16;2069244;28;20167;-72
2022/12/11 00:29:14;;;;;;;16.10;2.78;;;;;;;19.50;100.00;100997.09;2069453;28;20050;-72
2022/12/11 00:30:38;;;;;;;18.00;3.58;;;;;;;19.54;100.00;100995.28;2074939;28;20807;-73
2022/12/11 00:32:00;;;;;;;13.45;3.03;;;;;;;19.55;100.00;100986.34;2069449;28;20132;-73
2022/12/11 00:33:22;;;;;;;22.60;3.97;;;;;;;19.57;100.00;100997.88;2074877;28;20061;-72
2022/12/11 00:34:44;;;;;;;16.63;2.83;;;;;;;19.58;100.00;101010.38;2069560;28;20041;-72
2022/12/11 00:36:12;;;;;;;17.77;3.00;;;;;;;19.60;100.00;101013.91;2074648;28;20509;-73
2022/12/11 00:37:34;;;;;;;23.05;4.53;;;;;;;19.61;100.00;101010.34;2078495;28;20041;-71
2022/12/11 00:38:55;;;;;;;18.75;3.08;;;;;;;19.63;100.00;101013.84;2069630;28;20053;-72
2022/12/11 00:40:19;;;;;;;13.90;3.03;;;;;;;19.63;100.00;101011.16;2076279;28;20076;-72
2022/12/11 00:41:42;;;;;;;13.63;3.65;;;;;;;19.65;100.00;101013.81;2077682;28;20401;-72
2022/12/11 00:43:04;;;;;;;13.63;3.13;;;;;;;19.65;100.00;101008.47;2076449;28;20048;-73
2022/12/11 00:44:27;;;;;;;16.38;3.42;;;;;;;19.64;100.00;101012.94;2068014;28;20068;-74
2022/12/11 00:45:49;;;;;;;11.30;2.10;;;;;;;19.63;100.00;101013.84;2066733;28;20042;-72
2022/12/11 00:47:11;;;;;;;12.40;2.83;;;;;;;19.63;100.00;101016.53;2068635;28;20065;-73
2022/12/11 00:48:33;;;;;;;16.90;3.38;;;;;;;19.61;100.00;101007.66;2066500;28;20064;-72
2022/12/11 00:49:56;;;;;;;10.45;2.72;;;;;;;19.61;100.00;101010.34;2061409;28;20565;-73
2022/12/11 00:51:18;;;;;;;18.88;3.47;;;;;;;19.58;100.00;100999.66;2058528;28;20035;-72
2022/12/11 00:52:41;;;;;;;17.90;3.13;;;;;;;19.56;100.00;100996.13;2074655;28;20056;-72
2022/12/11 00:54:04;;;;;;;14.05;2.47;;;;;;;19.54;100.00;100997.97;2071634;28;20602;-72
2022/12/11 00:55:31;;;;;;;16.92;3.03;;;;;;;19.52;100.00;100989.06;2062732;28;20632;-72
2022/12/11 00:56:56;;;;;;;18.05;3.88;;;;;;;19.49;100.00;100995.34;2069637;28;20308;-72
2022/12/11 00:58:18;;;;;;;19.80;2.70;;;;;;;19.48;100.00;100987.34;2074280;28;20180;-73
2022/12/11 00:59:41;;;;;;;17.73;3.30;;;;;;;19.45;100.00;100973.97;2077169;28;20045;-72
2022/12/11 01:01:06;;;;;;;17.55;2.80;;;;;;;19.46;100.00;100970.41;2076859;28;20053;-72
2022/12/11 01:02:28;;;;;;;19.70;2.78;;;;;;;19.45;100.00;100963.25;2076845;28;20195;-72
2022/12/11 01:03:52;;;;;;;14.93;2.47;;;;;;;19.46;100.00;100954.34;2076299;28;20057;-72
2022/12/11 01:05:13;;;;;;;12.13;2.30;;;;;;;19.44;100.00;100946.31;2070857;28;20054;-72
2022/12/11 01:06:35;;;;;;;15.32;3.83;;;;;;;19.44;100.00;100948.97;2068789;28;20058;-72
2022/12/11 01:07:57;;;;;;;15.02;2.88;;;;;;;19.44;100.00;100934.72;2068298;28;20218;-71
2022/12/11 01:11:06;;;;;;;16.70;3.40;;;;;;;19.40;100.00;100927.66;2077223;28;20045;-72
2022/12/11 01:12:27;;;;;;;15.52;2.97;;;;;;;19.39;100.00;100912.50;2068119;28;20045;-72
2022/12/11 01:13:50;;;;;;;17.38;3.33;;;;;;;19.37;100.00;100916.97;2073597;28;20045;-72
2022/12/11 01:15:11;;;;;;;13.93;3.53;;;;;;;19.37;100.00;100911.63;2070369;28;20057;-73
2022/12/11 01:16:33;;;;;;;15.40;3.45;;;;;;;19.36;100.00;100896.50;2073992;28;20045;-72
2022/12/11 01:17:55;;;;;;;16.15;3.33;;;;;;;19.34;100.00;100895.63;2079756;28;20053;-74
2022/12/11 01:19:17;;;;;;;11.13;2.53;;;;;;;19.32;100.00;100884.06;2069178;28;20089;-73
2022/12/11 01:20:42;;;;;;;19.10;2.78;;;;;;;19.31;100.00;100887.66;2068407;28;20097;-74
2022/12/11 01:22:05;;;;;;;15.70;3.72;;;;;;;19.27;100.00;100880.59;2083119;28;20068;-74
2022/12/11 01:23:26;;;;;;;22.77;3.90;;;;;;;19.27;100.00;100884.16;2078871;28;20075;-74
2022/12/11 01:24:48;;;;;;;16.35;2.88;;;;;;;19.27;100.00;100883.28;2067606;28;20522;-74
2022/12/11 01:26:15;;;;;;;14.43;3.05;;;;;;;19.27;100.00;100867.22;2067972;28;20061;-73
2022/12/11 01:27:36;;;;;;;12.93;2.75;;;;;;;19.26;100.00;100869.00;2074863;28;20038;-73
2022/12/11 01:28:59;;;;;;;12.65;2.60;;;;;;;19.26;100.00;100871.69;2070137;28;20405;-73
2022/12/11 01:30:22;;;;;;;21.33;4.13;;;;;;;19.27;100.00;100876.13;2076050;28;20045;-73
2022/12/11 01:31:45;;;;;;;14.25;2.70;;;;;;;19.27;100.00;100867.22;2068417;28;20046;-74
2022/12/11 01:33:06;;;;;;;13.95;2.28;;;;;;;19.27;100.00;100875.25;2073445;28;20132;-73
2022/12/11 01:34:30;;;;;;;16.48;3.13;;;;;;;19.27;100.00;100865.41;2068191;28;20062;-74
2022/12/11 01:35:53;;;;;;;16.92;3.22;;;;;;;19.28;100.00;100871.66;2074037;28;20381;-73
2022/12/11 01:37:15;;;;;;;16.35;3.58;;;;;;;19.29;100.00;100870.75;2077092;28;20049;-74
2022/12/11 01:38:37;;;;;;;26.67;4.18;;;;;;;19.30;100.00;100876.06;2076978;28;20045;-73
2022/12/11 01:40:01;;;;;;;7.75;2.00;;;;;;;19.29;100.00;100870.75;2077399;28;20105;-74
2022/12/11 01:41:24;;;;;;;17.10;2.88;;;;;;;19.28;100.00;100866.31;2076178;28;20493;-73
2022/12/11 01:42:46;;;;;;;15.27;2.95;;;;;;;19.29;100.00;100868.06;2060830;28;20054;-73
2022/12/11 01:44:47;;;;;;;18.83;3.50;;;;;;;19.28;100.00;100859.16;2065889;28;20095;-73
2022/12/11 01:46:09;;;;;;;18.10;3.60;;;;;;;19.25;100.00;100869.03;2086869;28;20059;-73
2022/12/11 01:47:30;;;;;;;21.00;3.28;;;;;;;19.25;100.00;100863.66;2075915;28;20520;-73
2022/12/11 01:48:54;;;;;;;15.00;3.55;;;;;;;19.26;100.00;100860.09;2076576;28;20045;-72
2022/12/11 01:50:15;;;;;;;17.92;2.92;;;;;;;19.26;100.00;100857.41;2076314;28;20042;-72
2022/12/11 01:51:41;;;;;;;14.93;2.92;;;;;;;19.25;100.00;100848.50;2070882;28;20216;-72
2022/12/11 01:53:05;;;;;;;18.98;3.03;;;;;;;19.23;100.00;100839.59;2068865;28;20193;-72
2022/12/11 01:54:29;;;;;;;26.33;4.35;;;;;;;19.22;100.00;100834.28;2066925;28;20046;-73
2022/12/11 01:55:55;;;;;;;14.15;3.28;;;;;;;19.20;100.00;100831.66;2067059;28;20401;-72
2022/12/11 01:57:18;;;;;;;16.13;3.67;;;;;;;19.18;100.00;100830.78;2080343;28;20385;-72
2022/12/11 01:58:45;;;;;;;13.18;3.10;;;;;;;19.18;100.00;100827.22;2086902;28;20069;-72
2022/12/11 02:00:08;;;;;;;13.20;2.53;;;;;;;19.18;100.00;100820.06;2085157;28;20479;-73
2022/12/11 02:01:40;;;;;;;18.92;2.90;;;;;;;19.18;100.00;100779.91;2079122;28;20059;-72
2022/12/11 02:03:02;;;;;;;20.17;3.33;;;;;;;19.18;100.00;100809.38;2079307;28;20049;-72
2022/12/11 02:04:25;;;;;;;14.13;2.85;;;;;;;19.17;100.00;100791.53;2078345;28;20094;-73
2022/12/11 02:05:48;;;;;;;19.65;2.92;;;;;;;19.16;100.00;100781.78;2077696;28;20107;-71
2022/12/11 02:07:10;;;;;;;19.42;2.88;;;;;;;19.15;100.00;100788.03;2079734;28;20107;-72
2022/12/11 02:08:32;;;;;;;15.85;3.65;;;;;;;19.15;100.00;100784.47;2069805;28;20053;-72
2022/12/11 02:09:53;;;;;;;19.02;3.55;;;;;;;19.13;100.00;100779.13;2074579;28;20045;-72
2022/12/11 02:11:20;;;;;;;18.83;3.33;;;;;;;19.14;100.00;100751.47;2069662;28;20521;-73
2022/12/11 02:12:58;;;;;;;11.38;2.88;;;;;;;19.16;100.00;100767.50;2075607;28;20048;-73
2022/12/11 02:14:30;;;;;;;12.48;2.40;;;;;;;19.15;100.00;100752.34;2077756;28;20067;-73
2022/12/11 02:16:06;;;;;;;13.57;2.92;;;;;;;19.15;100.00;100749.69;2069861;28;20046;-73
2022/12/11 02:17:35;;;;;;;12.02;2.80;;;;;;;19.17;100.00;100738.00;2082016;28;20044;-74
2022/12/11 02:19:03;;;;;;;10.00;3.08;;;;;;;19.19;100.00;100732.63;2079462;28;20623;-72
2022/12/11 02:20:30;;;;;;;9.52;3.20;;;;;;;19.18;100.00;100744.25;2070114;28;20405;-72
2022/12/11 02:21:56;;;;;;;14.10;3.53;;;;;;;19.19;100.00;100736.19;2076383;28;20120;-73
2022/12/11 02:23:38;;;;;;;13.27;3.35;;;;;;;19.19;100.00;100708.53;2064910;28;20734;-73
2022/12/11 02:25:16;;;;;;;15.40;3.42;;;;;;;19.20;100.00;100734.41;2083526;28;20084;-73
2022/12/11 02:26:54;;;;;;;14.43;3.10;;;;;;;19.20;100.00;100729.03;2065292;28;20133;-73
2022/12/11 02:28:24;;;;;;;12.18;3.30;;;;;;;19.20;100.00;100716.56;2071967;28;20049;-74
2022/12/11 02:29:51;;;;;;;15.75;3.72;;;;;;;19.19;100.00;100709.44;2071568;28;20050;-73
2022/12/11 02:31:18;;;;;;;14.73;3.80;;;;;;;19.20;100.00;100716.56;2066839;28;20053;-73
2022/12/11 02:32:46;;;;;;;14.43;3.22;;;;;;;19.21;100.00;100721.00;2069048;28;20220;-73
2022/12/11 02:34:13;;;;;;;13.70;3.28;;;;;;;19.22;100.00;100700.47;2071078;28;20042;-71
2022/12/11 02:35:40;;;;;;;14.50;3.03;;;;;;;19.20;100.00;100735.28;2076660;28;20449;-73
2022/12/11 02:37:06;;;;;;;12.70;3.58;;;;;;;19.18;100.00;100718.38;2079913;28;20037;-73
2022/12/11 02:38:32;;;;;;;21.08;3.85;;;;;;;19.20;100.00;100737.06;2078839;28;20049;-73
2022/12/11 02:39:56;;;;;;;13.90;3.47;;;;;;;19.20;100.00;100735.28;2068162;28;20263;-73
2022/12/11 02:41:21;;;;;;;14.05;2.97;;;;;;;19.21;100.00;100746.88;2074670;28;20053;-72
2022/12/11 02:42:47;;;;;;;20.17;4.10;;;;;;;19.20;100.00;100735.28;2075531;28;20405;-72
2022/12/11 02:44:15;;;;;;;13.32;2.42;;;;;;;19.19;100.00;100728.16;2070353;28;20061;-74
2022/12/11 02:45:41;;;;;;;10.38;2.67;;;;;;;19.20;100.00;100742.44;2072535;28;20052;-73
2022/12/11 02:47:05;;;;;;;13.27;2.38;;;;;;;19.21;100.00;100739.72;2078736;28;20046;-73
2022/12/11 02:48:27;;;;;;;13.27;2.22;;;;;;;19.23;100.00;100739.72;2076620;28;20126;-72
2022/12/11 02:49:51;;;;;;;13.70;3.28;;;;;;;19.23;100.00;100727.16;2069019;28;20058;-72
2022/12/11 02:51:17;;;;;;;14.95;3.33;;;;;;;19.23;100.00;100742.38;2067744;28;20591;-73
2022/12/11 02:52:41;;;;;;;13.55;2.70;;;;;;;19.23;100.00;100731.69;2076545;28;20099;-73
2022/12/11 02:54:07;;;;;;;14.40;3.00;;;;;;;19.24;100.00;100736.09;2077676;28;20064;-73
2022/12/11 02:55:30;;;;;;;12.00;2.55;;;;;;;19.23;100.00;100745.91;2078047;28;20516;-74
2022/12/11 02:56:59;;;;;;;14.20;3.42;;;;;;;19.24;100.00;100749.47;2076659;28;20103;-74
2022/12/11 02:58:24;;;;;;;13.15;3.20;;;;;;;19.24;100.00;100757.50;2085682;28;20083;-74
2022/12/11 02:59:48;;;;;;;12.20;2.70;;;;;;;19.25;100.00;100754.81;2079234;28;20034;-74
2022/12/11 03:01:11;;;;;;;11.82;3.08;;;;;;;19.26;100.00;100769.06;2071410;28;20049;-73
2022/12/11 03:02:33;;;;;;;13.75;3.25;;;;;;;19.26;100.00;100772.63;2078205;28;20049;-72
2022/12/11 03:03:56;;;;;;;15.13;3.33;;;;;;;19.24;100.00;100765.53;2078329;28;20061;-73
2022/12/11 03:05:17;;;;;;;11.32;2.88;;;;;;;19.23;100.00;100772.69;2070095;28;20057;-73
2022/12/11 03:06:44;;;;;;;16.23;3.40;;;;;;;19.24;100.00;100765.53;2074793;28;20100;-74
2022/12/11 03:08:06;;;;;;;14.55;3.58;;;;;;;19.22;100.00;100770.94;2067135;28;20034;-74
2022/12/11 03:09:28;;;;;;;14.23;2.88;;;;;;;19.24;100.00;100770.88;2074944;28;20107;-73
2022/12/11 03:10:50;;;;;;;16.42;4.38;;;;;;;19.28;100.00;100762.78;2077887;28;20048;-73
2022/12/11 03:12:18;;;;;;;13.68;3.05;;;;;;;19.28;100.00;100751.19;2077287;28;20053;-73
2022/12/11 03:13:42;;;;;;;14.85;3.10;;;;;;;19.28;100.00;100762.78;2077945;28;20387;-73
2022/12/11 03:15:09;;;;;;;13.13;3.58;;;;;;;19.27;100.00;100758.34;2069949;28;20410;-73
2022/12/11 03:16:35;;;;;;;18.75;3.28;;;;;;;19.27;100.00;100760.13;2066696;28;20716;-74
2022/12/11 03:18:04;;;;;;;17.00;3.22;;;;;;;19.27;100.00;100760.13;2078214;28;20057;-73
2022/12/11 03:19:34;;;;;;;20.80;3.80;;;;;;;19.26;100.00;100769.97;2072150;28;20065;-74
2022/12/11 03:21:05;;;;;;;13.30;3.20;;;;;;;19.27;100.00;100765.50;2076529;28;20091;-72
2022/12/11 03:22:37;;;;;;;15.13;3.92;;;;;;;19.26;100.00;100769.97;2070916;28;20042;-73
2022/12/11 03:24:05;;;;;;;12.20;3.03;;;;;;;19.29;100.00;100771.69;2075050;28;20041;-73
2022/12/11 03:25:34;;;;;;;12.95;3.17;;;;;;;19.28;100.00;100760.09;2072616;28;20065;-73
2022/12/11 03:27:02;;;;;;;14.48;3.88;;;;;;;19.26;100.00;100767.28;2078918;28;20046;-72
2022/12/11 03:28:30;;;;;;;15.68;3.17;;;;;;;19.26;100.00;100786.00;2078558;28;20049;-74
2022/12/11 03:29:58;;;;;;;19.98;3.90;;;;;;;19.27;100.00;100778.88;2071740;28;20103;-73
2022/12/11 03:31:26;;;;;;;18.95;3.70;;;;;;;19.28;100.00;100777.97;2068958;28;20046;-73
2022/12/11 03:32:51;;;;;;;16.92;3.35;;;;;;;19.25;100.00;100772.66;2068707;28;20052;-73
2022/12/11 03:34:19;;;;;;;23.30;4.82;;;;;;;19.25;100.00;100788.72;2063579;28;20050;-73
2022/12/11 03:35:45;;;;;;;15.50;3.72;;;;;;;19.25;100.00;100768.19;2070131;28;20057;-73
2022/12/11 03:37:09;;;;;;;18.85;3.38;;;;;;;19.24;100.00;100800.34;2076589;28;20045;-74
2022/12/11 03:38:37;;;;;;;15.85;3.15;;;;;;;19.24;100.00;100786.94;2084043;28;20044;-73
2022/12/11 03:40:02;;;;;;;18.95;4.15;;;;;;;19.23;100.00;100779.84;2086786;28;20870;-73
2022/12/11 03:41:28;;;;;;;16.85;3.70;;;;;;;19.23;100.00;100785.22;2085827;28;20172;-72
2022/12/11 03:42:51;;;;;;;16.58;3.75;;;;;;;19.22;100.00;100788.78;2077302;28;20067;-73
2022/12/11 03:44:16;;;;;;;14.13;3.13;;;;;;;19.23;100.00;100787.88;2071589;28;20050;-73
2022/12/11 03:45:40;;;;;;;24.10;4.22;;;;;;;19.23;100.00;100782.53;2067383;28;20406;-74
2022/12/11 03:47:07;;;;;;;14.43;3.38;;;;;;;19.25;100.00;100802.09;2076065;28;20057;-73
2022/12/11 03:48:34;;;;;;;14.07;3.22;;;;;;;19.24;100.00;100806.56;2078344;28;20052;-74
2022/12/11 03:49:58;;;;;;;22.33;4.25;;;;;;;19.27;100.00;100800.28;2077727;28;20547;-73
2022/12/11 03:51:23;;;;;;;17.45;3.58;;;;;;;19.27;100.00;100803.84;2078221;28;20046;-73
2022/12/11 03:52:47;;;;;;;14.63;3.15;;;;;;;19.29;100.00;100796.69;2069817;28;20042;-74
2022/12/11 03:54:10;;;;;;;23.50;3.72;;;;;;;19.29;100.00;100803.81;2071715;28;20049;-73
2022/12/11 03:55:36;;;;;;;20.48;4.22;;;;;;;19.29;100.00;100795.78;2086304;28;20080;-73
2022/12/11 03:57:00;;;;;;;18.60;4.47;;;;;;;19.27;100.00;100792.25;2078020;28;20049;-73
2022/12/11 03:58:23;;;;;;;20.27;3.70;;;;;;;19.26;100.00;100794.03;2080389;28;20089;-73
2022/12/11 03:59:44;;;;;;;20.92;3.85;;;;;;;19.27;100.00;100797.59;2069735;28;20136;-73
2022/12/11 04:01:09;;;;;;;16.15;3.72;;;;;;;19.26;100.00;100786.00;2066569;28;20041;-73
2022/12/11 04:02:33;;;;;;;19.70;4.25;;;;;;;19.29;100.00;100787.75;2068114;28;20053;-72
2022/12/11 04:03:55;;;;;;;18.77;3.83;;;;;;;19.29;100.00;100794.00;2075348;28;20084;-73
2022/12/11 04:05:17;;;;;;;22.95;3.45;;;;;;;19.30;100.00;100778.78;2069496;28;20484;-74
2022/12/11 04:06:40;;;;;;;17.00;2.97;;;;;;;19.28;100.00;100778.84;2067906;28;20531;-74
2022/12/11 04:08:01;;;;;;;15.88;3.05;;;;;;;19.28;100.00;100783.31;2067940;28;20049;-73
2022/12/11 04:09:24;;;;;;;16.52;3.33;;;;;;;19.29;100.00;100777.06;2073585;28;20167;-73
2022/12/11 04:10:45;;;;;;;16.67;3.50;;;;;;;19.29;100.00;100774.38;2069172;28;20053;-74
2022/12/11 04:12:08;;;;;;;9.88;2.38;;;;;;;19.30;100.00;100794.84;2073944;28;20432;-73
2022/12/11 04:13:29;;;;;;;11.70;3.10;;;;;;;19.32;100.00;100779.66;2064149;28;20054;-73
2022/12/11 04:15:04;;;;;;;13.50;2.92;;;;;;;19.33;100.00;100776.06;2066773;28;20048;-73
2022/12/11 04:16:25;;;;;;;10.98;2.28;;;;;;;19.32;100.00;100769.84;2068708;28;20077;-73
2022/12/11 04:24:27;;;;;;;22.52;3.33;;;;;;;19.38;100.00;100766.13;2074198;28;20072;-73
2022/12/11 04:25:50;;;;;;;16.00;3.40;;;;;;;19.41;100.00;100755.38;2069045;28;20046;-73
2022/12/11 04:27:11;;;;;;;16.48;3.42;;;;;;;19.45;100.00;100757.06;2066888;28;20134;-73
2022/12/11 04:28:34;;;;;;;14.25;4.03;;;;;;;19.47;100.00;100753.50;2073363;28;20061;-73
2022/12/11 04:29:55;;;;;;;12.50;3.10;;;;;;;19.47;100.00;100752.59;2070570;28;20524;-73
2022/12/11 04:31:20;;;;;;;23.08;4.25;;;;;;;19.46;100.00;100751.72;2075672;28;20052;-74
2022/12/11 04:32:42;;;;;;;27.40;4.95;;;;;;;19.47;100.00;100742.78;2076628;28;20843;-73
2022/12/11 04:34:06;;;;;;;15.30;3.92;;;;;;;19.50;100.00;100749.84;2076772;28;20538;-73
2022/12/11 04:35:29;;;;;;;23.83;4.30;;;;;;;19.51;100.00;100746.25;2071243;28;20049;-72
2022/12/11 04:36:51;;;;;;;20.00;3.17;;;;;;;19.55;100.00;100747.09;2070241;28;20461;-74
2022/12/11 04:38:14;;;;;;;11.68;2.85;;;;;;;19.56;100.00;100738.16;2077252;28;20490;-73
2022/12/11 04:39:36;;;;;;;18.10;3.10;;;;;;;19.59;100.00;100735.38;2067612;28;20184;-72
2022/12/11 04:41:00;;;;;;;16.85;3.55;;;;;;;19.62;100.00;100738.91;2062198;28;20075;-72
2022/12/11 04:42:22;;;;;;;13.25;2.70;;;;;;;19.62;100.00;100741.59;2074454;28;20076;-73
2022/12/11 04:43:45;;;;;;;14.68;3.28;;;;;;;19.61;100.00;100737.13;2069489;28;20564;-74
2022/12/11 04:45:09;;;;;;;14.82;3.13;;;;;;;19.62;100.00;100738.03;2065986;28;20394;-73
2022/12/11 04:46:32;;;;;;;12.10;3.30;;;;;;;19.64;100.00;100726.34;2074649;28;20135;-74
2022/12/11 04:47:54;;;;;;;20.95;3.95;;;;;;;19.65;100.00;100728.09;2071147;28;20080;-73
2022/12/11 04:49:17;;;;;;;16.77;3.35;;;;;;;19.68;100.00;100740.56;2069407;28;20120;-74
2022/12/11 04:50:39;;;;;;;21.48;4.25;;;;;;;19.70;100.00;100736.91;2076316;28;20536;-73
2022/12/11 04:52:00;;;;;;;15.20;3.45;;;;;;;19.70;100.00;100738.72;2079045;28;20766;-73
2022/12/11 04:53:23;;;;;;;12.13;3.22;;;;;;;19.70;100.00;100738.72;2066667;28;20038;-74
2022/12/11 04:54:45;;;;;;;19.60;3.40;;;;;;;19.73;100.00;100742.22;2076753;28;20107;-73
2022/12/11 04:56:09;;;;;;;19.27;4.15;;;;;;;19.76;100.00;100731.41;2068492;28;20042;-74
2022/12/11 04:57:31;;;;;;;13.07;3.53;;;;;;;19.76;100.00;100736.78;2073068;28;20139;-74
2022/12/11 04:58:53;;;;;;;17.23;4.40;;;;;;;19.78;100.00;100726.91;2079088;28;20046;-72
2022/12/11 05:00:16;;;;;;;16.08;3.15;;;;;;;19.80;100.00;100734.94;2074017;28;20049;-74
2022/12/11 05:01:38;;;;;;;24.77;3.95;;;;;;;19.78;100.00;100731.38;2076304;28;20080;-73
2022/12/11 05:03:00;;;;;;;18.70;3.63;;;;;;;19.78;100.00;100726.91;2082503;28;20168;-73
2022/12/11 05:04:23;;;;;;;16.27;2.72;;;;;;;19.79;100.00;100736.72;2080520;28;20367;-73
2022/12/11 05:05:49;;;;;;;16.58;3.92;;;;;;;19.80;100.00;100711.69;2069740;28;20065;-73
2022/12/11 05:07:11;;;;;;;18.45;3.75;;;;;;;19.83;100.00;100735.72;2077461;28;20131;-74
2022/12/11 05:08:35;;;;;;;21.48;3.05;;;;;;;19.83;100.00;100738.41;2077354;28;20054;-73
2022/12/11 05:09:57;;;;;;;22.42;4.10;;;;;;;19.81;100.00;100742.94;2068578;28;20076;-73
2022/12/11 05:11:19;;;;;;;15.00;2.70;;;;;;;19.79;100.00;100743.88;2071735;28;20049;-73
2022/12/11 05:12:41;;;;;;;22.20;4.68;;;;;;;19.78;100.00;100750.13;2060943;28;20050;-74
2022/12/11 05:14:04;;;;;;;12.38;2.90;;;;;;;19.75;100.00;100742.19;2068080;28;20100;-73
2022/12/11 05:15:25;;;;;;;20.67;3.58;;;;;;;19.76;100.00;100731.41;2074785;28;20056;-72
2022/12/11 05:16:47;;;;;;;14.57;3.53;;;;;;;19.77;100.00;100748.38;2071034;28;20465;-72
2022/12/11 05:18:09;;;;;;;19.05;4.10;;;;;;;19.78;100.00;100724.22;2073744;28;20049;-72
2022/12/11 05:19:33;;;;;;;18.90;3.63;;;;;;;19.80;100.00;100729.56;2077418;28;20060;-73
2022/12/11 05:20:55;;;;;;;17.42;3.53;;;;;;;19.81;100.00;100734.00;2068037;28;20050;-73
2022/12/11 05:22:19;;;;;;;21.95;3.70;;;;;;;19.82;100.00;100722.38;2068582;28;20062;-72
2022/12/11 05:23:41;;;;;;;14.32;3.15;;;;;;;19.82;100.00;100728.59;2069485;28;20038;-74
2022/12/11 05:25:04;;;;;;;17.35;3.53;;;;;;;19.84;100.00;100720.53;2076312;28;20100;-73
2022/12/11 05:26:27;;;;;;;20.85;4.47;;;;;;;19.85;100.00;100723.19;2075133;28;20042;-72
2022/12/11 05:27:48;;;;;;;20.33;4.03;;;;;;;19.88;100.00;100727.59;2077137;28;20041;-72
2022/12/11 05:29:10;;;;;;;21.08;3.67;;;;;;;19.88;100.00;100722.25;2069498;28;20053;-73
2022/12/11 05:30:33;;;;;;;12.15;2.72;;;;;;;19.86;100.00;100735.66;2075058;28;20103;-73
2022/12/11 05:31:55;;;;;;;12.48;2.83;;;;;;;19.86;100.00;100745.50;2072543;28;20116;-73
2022/12/11 05:33:18;;;;;;;18.80;3.22;;;;;;;19.83;100.00;100757.16;2075165;28;20480;-72
2022/12/11 05:34:42;;;;;;;13.63;2.58;;;;;;;19.81;100.00;100761.69;2076761;28;20033;-73
2022/12/11 05:36:05;;;;;;;24.10;4.25;;;;;;;19.75;100.00;100758.25;2077163;28;20080;-73
2022/12/11 05:37:27;;;;;;;14.50;3.50;;;;;;;19.72;100.00;100759.19;2077801;28;20046;-73
2022/12/11 05:38:49;;;;;;;14.30;3.42;;;;;;;19.69;100.00;100759.25;2070958;28;20566;-72
2022/12/11 05:40:13;;;;;;;17.58;3.50;;;;;;;19.66;100.00;100778.09;2079143;28;20144;-73
2022/12/11 05:41:35;;;;;;;22.42;3.38;;;;;;;19.63;100.00;100764.75;2069238;28;20048;-73
2022/12/11 05:42:56;;;;;;;22.55;3.45;;;;;;;19.61;100.00;100760.34;2068344;28;20077;-73
2022/12/11 05:44:19;;;;;;;17.92;3.55;;;;;;;19.58;100.00;100753.25;2084371;28;20049;-73
2022/12/11 05:45:40;;;;;;;17.38;3.42;;;;;;;19.59;100.00;100764.84;2073310;28;20054;-73
2022/12/11 05:47:02;;;;;;;14.60;3.33;;;;;;;19.57;100.00;100780.94;2073378;28;20079;-73
2022/12/11 05:48:23;;;;;;;13.20;3.08;;;;;;;19.55;100.00;100772.09;2078047;28;20103;-72
2022/12/11 05:49:47;;;;;;;17.58;3.72;;;;;;;19.56;100.00;100772.97;2071501;28;20136;-72
2022/12/11 05:51:11;;;;;;;16.30;3.63;;;;;;;19.55;100.00;100784.59;2064041;28;20097;-74
2022/12/11 05:52:33;;;;;;;19.25;3.70;;;;;;;19.55;100.00;100780.13;2070165;28;20069;-73
2022/12/11 05:53:56;;;;;;;18.60;3.92;;;;;;;19.57;100.00;100780.94;2063980;28;20077;-72
2022/12/11 05:55:18;;;;;;;18.73;4.03;;;;;;;19.56;100.00;100757.75;2062264;28;20054;-73
2022/12/11 05:56:41;;;;;;;16.88;3.50;;;;;;;19.57;100.00;100758.63;2074155;28;20053;-73
2022/12/11 05:58:03;;;;;;;14.75;3.58;;;;;;;19.59;100.00;100770.22;2078192;28;20049;-72
2022/12/11 05:59:25;;;;;;;16.77;3.58;;;;;;;19.60;100.00;100756.78;2075776;28;20046;-73
2022/12/11 06:00:47;;;;;;;19.42;3.75;;;;;;;19.60;100.00;100758.59;2071602;28;20136;-73
2022/12/11 06:02:09;;;;;;;19.35;3.97;;;;;;;19.60;100.00;100740.72;2072956;28;20061;-72
2022/12/11 06:03:31;;;;;;;17.50;3.60;;;;;;;19.63;100.00;100755.81;2076007;28;20053;-73
2022/12/11 06:04:54;;;;;;;21.27;5.07;;;;;;;19.65;100.00;100746.84;2081137;28;20068;-72
2022/12/11 06:06:17;;;;;;;16.60;3.60;;;;;;;19.66;100.00;100755.78;2070100;28;20072;-73
2022/12/11 06:07:40;;;;;;;23.65;3.72;;;;;;;19.67;100.00;100755.75;2067291;28;20070;-73
2022/12/11 06:09:03;;;;;;;20.90;4.28;;;;;;;19.70;100.00;100765.50;2072546;28;20053;-72
2022/12/11 06:10:25;;;;;;;23.52;4.32;;;;;;;19.71;100.00;100772.63;2077754;28;20083;-73
2022/12/11 06:11:47;;;;;;;12.90;3.25;;;;;;;19.71;100.00;100769.94;2072930;28;20441;-73
2022/12/11 06:13:08;;;;;;;18.10;3.75;;;;;;;19.71;100.00;100773.50;2070213;28;20053;-73
2022/12/11 06:14:30;;;;;;;17.80;3.83;;;;;;;19.71;100.00;100770.81;2076394;28;20525;-74
2022/12/11 06:15:52;;;;;;;16.75;3.40;;;;;;;19.74;100.00;100785.97;2077104;28;20447;-73
2022/12/11 06:17:14;;;;;;;13.90;2.85;;;;;;;19.74;100.00;100788.66;2072588;28;20129;-73
2022/12/11 06:18:37;;;;;;;10.20;2.72;;;;;;;19.74;100.00;100819.00;2075399;28;20041;-73
2022/12/11 06:20:00;;;;;;;24.15;4.05;;;;;;;19.75;100.00;100817.19;2077391;28;20052;-73
2022/12/11 06:21:24;;;;;;;17.55;4.65;;;;;;;19.76;100.00;100821.63;2070009;28;20046;-74
2022/12/11 06:22:47;;;;;;;20.25;4.05;;;;;;;19.75;100.00;100836.84;2075507;28;20057;-72
2022/12/11 06:24:10;;;;;;;23.75;4.03;;;;;;;19.75;100.00;100830.59;2077323;28;20064;-73
2022/12/11 06:25:32;;;;;;;23.17;3.97;;;;;;;19.75;100.00;100846.66;2076969;28;20046;-73
2022/12/11 06:26:55;;;;;;;25.15;4.43;;;;;;;19.76;100.00;100840.38;2078206;28;20474;-72
2022/12/11 06:28:17;;;;;;;17.95;3.53;;;;;;;19.76;100.00;100835.91;2072866;28;20057;-73
2022/12/11 06:29:40;;;;;;;21.48;4.35;;;;;;;19.77;100.00;100848.38;2078251;28;20489;-72